Villa Rica, Puerto Rico
Current Conditions -  °F | °C
As of 5:56 PM on Saturday 20 Dec 2014 (Local Time) from TJSJ Reporting Station
Scattered Clouds Scattered Clouds  
Wind Chill: 79°   Ceiling: Unl
Heat Index: 82°   Visibility: 10mi
Dew Point: 72°   Wind: 6mph
Humidity: 79%   Direction: 90°E
Pressure: 30"   Gusts: NA
Location:  18.1781°N, 66.1167°W
Report Text: TJSJ 202156Z 09005KT 10SM FEW018 SCT060 26/22 A3000 RMK AO2 SLP156 T02610222
Loading
Personal Weather Stations






























Interactive Weather Map New forecast layout! Learn more

10-Day Weather Forecast

Advertisements
Track Severe Weather on mobile